PWSweather.com
Personal Weather Stations
Station Observations
265NC
Va2kh, Stcasimir, QC G0A 3L0

Va2khStcasimir, QC G0A 3L0

Lat: 46.65839, Lon: -72.13905

Elevation: 105

Station Type: National Geographic 265NC

http://www.qsl.net/va2kh

High Low Average
Temperature 52.0°F11.1°F 37.4°F3.0°F 44.8°F7.1°F
Dew Point 43.5°F6.4°F 34.9°F1.6°F 39.2°F4.0°F
Winds 5.5 mph E8.9 mph E Calm Calm 1.4 mph 2.3 mph
Wind Gusts 14.5 mph23.3 mph 0.7 mph1.1 mph 6.0 mph9.7 mph
Humidity 92% 69% 81%
Pressure 30.43 in1030.50 in 30.21 in1023.00 in -
Precipitation 0.03 in0.80 in - -
Hour Temp Dew Point Humidity Winds Wind Gusts Pressure Precip Precip Rate Daily Precip Total
12:00 AM 39.0°F3.9°C 35.5°F1.9°C 87% 0.1 mph N0.2 kmh N 1.6 mph2.6 kmh 30.42 in1030.1 mb 0.00 in0.0 mm 0.00 in/hr0.0 mm/hr 0.00 in0.0 mm
12:15 AM 38.1°F3.4°C 34.9°F1.6°C 88% Calm Calm 0.7 mph1.1 kmh 30.43 in1030.5 mb 0.00 in0.0 mm 0.00 in/hr0.0 mm/hr 0.00 in0.0 mm
12:30 AM 38.1°F3.4°C 35.5°F1.9°C 90% Calm Calm 0.7 mph1.1 kmh 30.43 in1030.5 mb 0.00 in0.0 mm 0.00 in/hr0.0 mm/hr 0.00 in0.0 mm
12:45 AM 37.9°F3.3°C 35.6°F2.0°C 91% Calm Calm 1.6 mph2.6 kmh 30.43 in1030.5 mb 0.00 in0.0 mm 0.00 in/hr0.0 mm/hr 0.00 in0.0 mm
01:00 AM 37.4°F3.0°C 35.3°F1.8°C 92% 0.2 mph N0.3 kmh N 2.2 mph3.5 kmh 30.43 in1030.5 mb 0.00 in0.0 mm 0.00 in/hr0.0 mm/hr 0.00 in0.0 mm
01:15 AM 39.4°F4.1°C 37.0°F2.8°C 91% 2.8 mph ENE4.5 kmh ENE 8.3 mph13.4 kmh 30.42 in1030.1 mb 0.00 in0.0 mm 0.00 in/hr0.0 mm/hr 0.00 in0.0 mm
01:30 AM 41.2°F5.1°C 37.3°F2.9°C 86% 2.9 mph E4.7 kmh E 8.3 mph13.4 kmh 30.42 in1030.1 mb 0.00 in0.0 mm 0.00 in/hr0.0 mm/hr 0.00 in0.0 mm
01:45 AM 41.5°F5.3°C 36.8°F2.7°C 83% 1.0 mph NE1.6 kmh NE 4.5 mph7.2 kmh 30.42 in1030.1 mb 0.00 in0.0 mm 0.00 in/hr0.0 mm/hr 0.00 in0.0 mm
02:00 AM 41.0°F5.0°C 35.9°F2.2°C 82% 1.3 mph NE2.1 kmh NE 5.4 mph8.7 kmh 30.42 in1030.1 mb 0.00 in0.0 mm 0.00 in/hr0.0 mm/hr 0.00 in0.0 mm
02:15 AM 39.7°F4.3°C 35.3°F1.8°C 84% 1.2 mph NE1.9 kmh NE 3.8 mph6.1 kmh 30.40 in1029.5 mb 0.00 in0.0 mm 0.00 in/hr0.0 mm/hr 0.00 in0.0 mm
02:30 AM 39.0°F3.9°C 35.5°F1.9°C 87% 1.2 mph N1.9 kmh N 3.8 mph6.1 kmh 30.40 in1029.5 mb 0.00 in0.0 mm 0.00 in/hr0.0 mm/hr 0.00 in0.0 mm
02:45 AM 39.4°F4.1°C 35.8°F2.1°C 87% 1.0 mph N1.6 kmh N 3.8 mph6.1 kmh 30.39 in1029.1 mb 0.00 in0.0 mm 0.00 in/hr0.0 mm/hr 0.00 in0.0 mm
03:00 AM 39.9°F4.4°C 36.4°F2.4°C 87% 1.5 mph NE2.4 kmh NE 6.0 mph9.7 kmh 30.38 in1028.8 mb 0.00 in0.0 mm 0.00 in/hr0.0 mm/hr 0.00 in0.0 mm
03:15 AM 39.9°F4.4°C 36.4°F2.4°C 87% 1.3 mph NE2.1 kmh NE 4.5 mph7.2 kmh 30.38 in1028.8 mb 0.00 in0.0 mm 0.00 in/hr0.0 mm/hr 0.00 in0.0 mm
03:30 AM 40.5°F4.7°C 36.9°F2.7°C 87% 3.0 mph NNE4.8 kmh NNE 6.9 mph11.1 kmh 30.38 in1028.8 mb 0.00 in0.0 mm 0.00 in/hr0.0 mm/hr 0.00 in0.0 mm
03:45 AM 40.8°F4.9°C 37.0°F2.8°C 86% 1.3 mph NNE2.1 kmh NNE 6.0 mph9.7 kmh 30.37 in1028.4 mb 0.00 in0.0 mm 0.00 in/hr0.0 mm/hr 0.00 in0.0 mm
04:00 AM 41.0°F5.0°C 37.1°F2.8°C 86% 0.8 mph NE1.3 kmh NE 4.5 mph7.2 kmh 30.37 in1028.4 mb 0.00 in0.0 mm 0.00 in/hr0.0 mm/hr 0.00 in0.0 mm
04:15 AM 41.2°F5.1°C 37.0°F2.8°C 85% 0.4 mph ENE0.6 kmh ENE 3.1 mph5.0 kmh 30.36 in1028.1 mb 0.00 in0.0 mm 0.00 in/hr0.0 mm/hr 0.00 in0.0 mm
04:30 AM 41.4°F5.2°C 36.6°F2.6°C 83% 0.1 mph NE0.2 kmh NE 3.1 mph5.0 kmh 30.36 in1028.1 mb 0.00 in0.0 mm 0.00 in/hr0.0 mm/hr 0.00 in0.0 mm
04:45 AM 41.5°F5.3°C 36.8°F2.7°C 83% 0.3 mph NNE0.5 kmh NNE 3.1 mph5.0 kmh 30.37 in1028.4 mb 0.00 in0.0 mm 0.00 in/hr0.0 mm/hr 0.00 in0.0 mm
05:00 AM 41.5°F5.3°C 36.8°F2.7°C 83% 0.6 mph NNW1.0 kmh NNW 3.1 mph5.0 kmh 30.36 in1028.1 mb 0.00 in0.0 mm 0.00 in/hr0.0 mm/hr 0.00 in0.0 mm
05:15 AM 41.5°F5.3°C 36.8°F2.7°C 83% 1.6 mph N2.6 kmh N 3.8 mph6.1 kmh 30.36 in1028.1 mb 0.00 in0.0 mm 0.00 in/hr0.0 mm/hr 0.00 in0.0 mm
05:30 AM 41.7°F5.4°C 36.6°F2.6°C 82% 0.3 mph N0.5 kmh N 3.1 mph5.0 kmh 30.35 in1027.8 mb 0.00 in0.0 mm 0.00 in/hr0.0 mm/hr 0.00 in0.0 mm
05:45 AM 41.7°F5.4°C 36.6°F2.6°C 82% 0.1 mph NNE0.2 kmh NNE 2.2 mph3.5 kmh 30.35 in1027.8 mb 0.00 in0.0 mm 0.00 in/hr0.0 mm/hr 0.00 in0.0 mm
06:00 AM 41.7°F5.4°C 36.9°F2.7°C 83% 0.2 mph N0.3 kmh N 3.1 mph5.0 kmh 30.35 in1027.8 mb 0.00 in0.0 mm 0.00 in/hr0.0 mm/hr 0.00 in0.0 mm
06:15 AM 41.9°F5.5°C 37.1°F2.8°C 83% Calm Calm 2.2 mph3.5 kmh 30.35 in1027.8 mb 0.00 in0.0 mm 0.00 in/hr0.0 mm/hr 0.00 in0.0 mm
06:30 AM 41.7°F5.4°C 37.2°F2.9°C 84% 0.2 mph NNE0.3 kmh NNE 3.1 mph5.0 kmh 30.34 in1027.4 mb 0.00 in0.0 mm 0.00 in/hr0.0 mm/hr 0.00 in0.0 mm
06:45 AM 41.9°F5.5°C 37.4°F3.0°C 84% 0.1 mph NNE0.2 kmh NNE 1.6 mph2.6 kmh 30.34 in1027.4 mb 0.00 in0.0 mm 0.00 in/hr0.0 mm/hr 0.00 in0.0 mm
07:00 AM 41.9°F5.5°C 37.7°F3.2°C 85% 0.4 mph NE0.6 kmh NE 2.2 mph3.5 kmh 30.34 in1027.4 mb 0.00 in0.0 mm 0.00 in/hr0.0 mm/hr 0.00 in0.0 mm
07:15 AM 42.1°F5.6°C 37.6°F3.1°C 84% 0.6 mph NNE1.0 kmh NNE 3.8 mph6.1 kmh 30.33 in1027.1 mb 0.00 in0.0 mm 0.00 in/hr0.0 mm/hr 0.00 in0.0 mm
07:30 AM 42.3°F5.7°C 37.8°F3.2°C 84% 2.0 mph NE3.2 kmh NE 5.4 mph8.7 kmh 30.34 in1027.4 mb 0.00 in0.0 mm 0.00 in/hr0.0 mm/hr 0.00 in0.0 mm
07:45 AM 42.4°F5.8°C 38.0°F3.3°C 84% 0.9 mph NE1.4 kmh NE 3.8 mph6.1 kmh 30.34 in1027.4 mb 0.00 in0.0 mm 0.00 in/hr0.0 mm/hr 0.00 in0.0 mm
08:00 AM 42.6°F5.9°C 38.1°F3.4°C 84% 1.2 mph NE1.9 kmh NE 4.5 mph7.2 kmh 30.34 in1027.4 mb 0.00 in0.0 mm 0.00 in/hr0.0 mm/hr 0.00 in0.0 mm
08:15 AM 42.8°F6.0°C 38.6°F3.7°C 85% 0.4 mph NE0.6 kmh NE 3.8 mph6.1 kmh 30.34 in1027.4 mb 0.00 in0.0 mm 0.00 in/hr0.0 mm/hr 0.00 in0.0 mm
08:30 AM 43.3°F6.3°C 39.1°F3.9°C 85% 0.5 mph ENE0.8 kmh ENE 3.1 mph5.0 kmh 30.33 in1027.1 mb 0.00 in0.0 mm 0.00 in/hr0.0 mm/hr 0.00 in0.0 mm
08:45 AM 44.2°F6.8°C 39.7°F4.3°C 84% 1.7 mph E2.7 kmh E 9.2 mph14.8 kmh 30.32 in1026.8 mb 0.00 in0.0 mm 0.00 in/hr0.0 mm/hr 0.00 in0.0 mm
09:00 AM 44.8°F7.1°C 40.2°F4.6°C 84% 0.2 mph NNE0.3 kmh NNE 5.4 mph8.7 kmh 30.32 in1026.8 mb 0.00 in0.0 mm 0.00 in/hr0.0 mm/hr 0.00 in0.0 mm
09:15 AM 45.7°F7.6°C 40.8°F4.9°C 83% 2.9 mph E4.7 kmh E 14.5 mph23.3 kmh 30.32 in1026.8 mb 0.00 in0.0 mm 0.00 in/hr0.0 mm/hr 0.00 in0.0 mm
09:30 AM 46.4°F8.0°C 41.2°F5.1°C 82% 1.1 mph ENE1.8 kmh ENE 5.4 mph8.7 kmh 30.31 in1026.4 mb 0.00 in0.0 mm 0.00 in/hr0.0 mm/hr 0.00 in0.0 mm
09:45 AM 46.8°F8.2°C 40.9°F4.9°C 80% 0.6 mph NE1.0 kmh NE 4.5 mph7.2 kmh 30.32 in1026.8 mb 0.00 in0.0 mm 0.00 in/hr0.0 mm/hr 0.00 in0.0 mm
10:00 AM 47.7°F8.7°C 41.5°F5.3°C 79% 1.8 mph E2.9 kmh E 5.4 mph8.7 kmh 30.31 in1026.4 mb 0.00 in0.0 mm 0.00 in/hr0.0 mm/hr 0.00 in0.0 mm
10:15 AM 49.1°F9.5°C 42.2°F5.7°C 77% 1.2 mph E1.9 kmh E 5.4 mph8.7 kmh 30.31 in1026.4 mb 0.00 in0.0 mm 0.00 in/hr0.0 mm/hr 0.00 in0.0 mm
10:30 AM 49.3°F9.6°C 42.0°F5.6°C 76% 0.9 mph NE1.4 kmh NE 5.4 mph8.7 kmh 30.31 in1026.4 mb 0.00 in0.0 mm 0.00 in/hr0.0 mm/hr 0.00 in0.0 mm
10:45 AM 50.0°F10.0°C 42.0°F5.6°C 74% 4.5 mph E7.2 kmh E 11.4 mph18.3 kmh 30.30 in1026.1 mb 0.00 in0.0 mm 0.00 in/hr0.0 mm/hr 0.00 in0.0 mm
11:00 AM 50.2°F10.1°C 41.5°F5.3°C 72% 5.5 mph E8.9 kmh E 14.5 mph23.3 kmh 30.29 in1025.7 mb 0.00 in0.0 mm 0.00 in/hr0.0 mm/hr 0.00 in0.0 mm
11:15 AM 50.0°F10.0°C 41.7°F5.4°C 73% 0.9 mph NW1.4 kmh NW 4.5 mph7.2 kmh 30.29 in1025.7 mb 0.00 in0.0 mm 0.00 in/hr0.0 mm/hr 0.00 in0.0 mm
11:30 AM 49.6°F9.8°C 41.3°F5.2°C 73% 2.8 mph ENE4.5 kmh ENE 14.5 mph23.3 kmh 30.29 in1025.7 mb 0.00 in0.0 mm 0.00 in/hr0.0 mm/hr 0.00 in0.0 mm
11:45 AM 50.4°F10.2°C 42.0°F5.6°C 73% 3.1 mph E5.0 kmh E 9.8 mph15.8 kmh 30.28 in1025.4 mb 0.00 in0.0 mm 0.00 in/hr0.0 mm/hr 0.00 in0.0 mm
12:00 PM 50.9°F10.5°C 42.2°F5.7°C 72% 2.3 mph E3.7 kmh E 9.8 mph15.8 kmh 30.27 in1025.1 mb 0.00 in0.0 mm 0.00 in/hr0.0 mm/hr 0.00 in0.0 mm
12:15 PM 51.6°F10.9°C 42.5°F5.8°C 71% 2.7 mph E4.3 kmh E 7.6 mph12.2 kmh 30.27 in1025.1 mb 0.00 in0.0 mm 0.00 in/hr0.0 mm/hr 0.00 in0.0 mm
12:30 PM 51.4°F10.8°C 42.0°F5.6°C 70% 4.0 mph E6.4 kmh E 12.1 mph19.5 kmh 30.26 in1024.7 mb 0.00 in0.0 mm 0.00 in/hr0.0 mm/hr 0.00 in0.0 mm
12:45 PM 51.1°F10.6°C 41.6°F5.3°C 70% 3.1 mph ESE5.0 kmh ESE 13.0 mph20.9 kmh 30.25 in1024.4 mb 0.00 in0.0 mm 0.00 in/hr0.0 mm/hr 0.00 in0.0 mm
01:00 PM 51.6°F10.9°C 42.5°F5.8°C 71% 2.8 mph NE4.5 kmh NE 10.7 mph17.2 kmh 30.25 in1024.4 mb 0.00 in0.0 mm 0.00 in/hr0.0 mm/hr 0.00 in0.0 mm
01:15 PM 51.8°F11.0°C 42.7°F5.9°C 71% 1.0 mph NE1.6 kmh NE 9.2 mph14.8 kmh 30.25 in1024.4 mb 0.00 in0.0 mm 0.00 in/hr0.0 mm/hr 0.00 in0.0 mm
01:30 PM 52.0°F11.1°C 42.5°F5.8°C 70% 1.4 mph SE2.3 kmh SE 9.2 mph14.8 kmh 30.23 in1023.7 mb 0.00 in0.0 mm 0.00 in/hr0.0 mm/hr 0.00 in0.0 mm
01:45 PM 52.0°F11.1°C 42.1°F5.6°C 69% 1.9 mph E3.1 kmh E 7.6 mph12.2 kmh 30.24 in1024.0 mb 0.00 in0.0 mm 0.00 in/hr0.0 mm/hr 0.00 in0.0 mm
02:00 PM 51.6°F10.9°C 42.2°F5.7°C 70% 1.4 mph NNE2.3 kmh NNE 8.3 mph13.4 kmh 30.23 in1023.7 mb 0.00 in0.0 mm 0.00 in/hr0.0 mm/hr 0.00 in0.0 mm
02:15 PM 50.9°F10.5°C 42.2°F5.7°C 72% 1.7 mph ESE2.7 kmh ESE 8.3 mph13.4 kmh 30.23 in1023.7 mb 0.00 in0.0 mm 0.00 in/hr0.0 mm/hr 0.00 in0.0 mm
02:30 PM 50.5°F10.3°C 41.9°F5.5°C 72% 3.0 mph E4.8 kmh E 9.2 mph14.8 kmh 30.22 in1023.4 mb 0.00 in0.0 mm 0.00 in/hr0.0 mm/hr 0.00 in0.0 mm
02:45 PM 50.5°F10.3°C 41.5°F5.3°C 71% 2.3 mph E3.7 kmh E 7.6 mph12.2 kmh 30.22 in1023.4 mb 0.00 in0.0 mm 0.00 in/hr0.0 mm/hr 0.00 in0.0 mm
03:00 PM 50.4°F10.2°C 41.7°F5.4°C 72% 2.0 mph ESE3.2 kmh ESE 8.3 mph13.4 kmh 30.22 in1023.4 mb 0.00 in0.0 mm 0.00 in/hr0.0 mm/hr 0.00 in0.0 mm
03:15 PM 49.8°F9.9°C 41.9°F5.5°C 74% 2.4 mph ESE3.9 kmh ESE 8.3 mph13.4 kmh 30.22 in1023.4 mb 0.00 in0.0 mm 0.00 in/hr0.0 mm/hr 0.00 in0.0 mm
03:45 PM 48.4°F9.1°C 43.1°F6.2°C 82% 0.4 mph SE0.6 kmh SE 4.5 mph7.2 kmh 30.22 in1023.4 mb 0.00 in0.0 mm 0.00 in/hr0.0 mm/hr 0.00 in0.0 mm
04:00 PM 47.3°F8.5°C 43.0°F6.1°C 85% 0.9 mph NE1.4 kmh NE 6.0 mph9.7 kmh 30.22 in1023.4 mb 0.00 in0.0 mm 0.00 in/hr0.0 mm/hr 0.00 in0.0 mm
04:15 PM 46.8°F8.2°C 43.1°F6.2°C 87% 0.6 mph ESE1.0 kmh ESE 9.8 mph15.8 kmh 30.22 in1023.4 mb 0.00 in0.0 mm 0.00 in/hr0.0 mm/hr 0.00 in0.0 mm
04:45 PM 45.9°F7.7°C 43.4°F6.3°C 91% 0.7 mph SSE1.1 kmh SSE 7.6 mph12.2 kmh 30.21 in1023.0 mb 0.01 in0.3 mm 0.02 in/hr0.5 mm/hr 0.01 in0.3 mm
05:00 PM 45.7°F7.6°C 43.5°F6.4°C 92% 1.5 mph E2.4 kmh E 6.0 mph9.7 kmh 30.21 in1023.0 mb 0.02 in0.5 mm 0.01 in/hr0.3 mm/hr 0.02 in0.5 mm